createdAt,value
2018-07-17T00:02:03.088Z,30.30
2018-07-17T00:04:31.468Z,30.30
2018-07-17T00:06:59.849Z,30.30
2018-07-17T00:09:28.300Z,30.30
2018-07-17T00:11:56.719Z,30.30
2018-07-17T00:14:25.106Z,30.30
2018-07-17T00:16:53.500Z,30.30
2018-07-17T00:19:21.880Z,30.20
2018-07-17T00:21:50.959Z,30.20
2018-07-17T00:24:19.479Z,30.20
2018-07-17T00:26:47.920Z,30.20
2018-07-17T00:29:16.364Z,30.20
2018-07-17T00:31:44.743Z,30.20
2018-07-17T00:34:13.104Z,30.20
2018-07-17T00:36:41.484Z,30.20
2018-07-17T00:39:09.888Z,30.20
2018-07-17T00:41:38.308Z,30.20
2018-07-17T00:44:06.689Z,30.20
2018-07-17T00:46:35.151Z,30.20
2018-07-17T00:49:03.721Z,30.20
2018-07-17T00:51:32.091Z,30.20
2018-07-17T00:54:00.979Z,30.20
2018-07-17T00:56:29.389Z,30.20
2018-07-17T01:01:31.195Z,30.20
2018-07-17T01:04:05.087Z,30.20
2018-07-17T01:06:38.883Z,30.10
2018-07-17T01:09:13.273Z,30.10
2018-07-17T01:11:47.055Z,30.00
2018-07-17T01:14:26.275Z,30.10
2018-07-17T01:16:54.664Z,30.00
2018-07-17T01:19:23.056Z,30.00
2018-07-17T01:21:51.475Z,30.10
2018-07-17T01:24:19.936Z,30.10
2018-07-17T01:26:48.440Z,30.00
2018-07-17T01:29:16.988Z,30.00
2018-07-17T01:31:45.408Z,30.00
2018-07-17T01:34:13.830Z,30.00
2018-07-17T01:36:42.291Z,30.00
2018-07-17T01:39:10.777Z,30.00
2018-07-17T01:41:39.213Z,30.00
2018-07-17T01:44:07.609Z,30.00
2018-07-17T01:46:36.041Z,30.00
2018-07-17T01:49:04.514Z,30.00
2018-07-17T01:51:32.868Z,30.00
2018-07-17T01:54:01.258Z,30.00
2018-07-17T01:56:30.208Z,30.00
2018-07-17T01:58:58.591Z,29.90
2018-07-17T02:01:27.118Z,30.00
2018-07-17T02:03:55.552Z,29.90
2018-07-17T02:06:23.978Z,30.00
2018-07-17T02:08:52.363Z,29.90
2018-07-17T02:11:20.740Z,29.90
2018-07-17T02:13:55.763Z,30.00
2018-07-17T02:16:24.159Z,29.90
2018-07-17T02:18:52.630Z,29.90
2018-07-17T02:21:21.036Z,29.90
2018-07-17T02:23:49.416Z,29.90
2018-07-17T02:26:17.828Z,29.80
2018-07-17T02:28:46.289Z,29.90
2018-07-17T02:31:14.663Z,29.90
2018-07-17T02:33:43.039Z,29.80
2018-07-17T02:36:11.449Z,29.80
2018-07-17T02:38:39.946Z,29.80
2018-07-17T02:41:08.461Z,29.80
2018-07-17T02:43:36.831Z,29.80
2018-07-17T02:46:05.347Z,29.80
2018-07-17T02:48:33.717Z,29.80
2018-07-17T02:51:02.136Z,29.80
2018-07-17T02:53:30.515Z,29.70
2018-07-17T02:55:58.887Z,29.80
2018-07-17T02:58:27.244Z,29.70
2018-07-17T03:00:56.086Z,29.70
2018-07-17T03:03:24.455Z,29.70
2018-07-17T03:05:52.892Z,29.70
2018-07-17T03:08:21.293Z,29.70
2018-07-17T03:10:49.668Z,29.70
2018-07-17T03:13:18.024Z,29.70
2018-07-17T03:15:46.448Z,29.70
2018-07-17T03:18:14.932Z,29.70
2018-07-17T03:20:43.300Z,29.60
2018-07-17T03:23:11.676Z,29.70
2018-07-17T03:25:40.129Z,29.60
2018-07-17T03:28:08.541Z,29.70
2018-07-17T03:30:37.085Z,29.60
2018-07-17T03:33:05.552Z,29.60
2018-07-17T03:35:33.938Z,29.60
2018-07-17T03:38:02.343Z,29.60
2018-07-17T03:40:30.708Z,29.60
2018-07-17T03:42:59.084Z,29.60
2018-07-17T03:45:27.463Z,29.60
2018-07-17T03:47:55.921Z,29.60
2018-07-17T03:50:25.315Z,29.60
2018-07-17T03:52:53.828Z,29.60
2018-07-17T03:55:22.217Z,29.60
2018-07-17T03:57:50.836Z,29.50
2018-07-17T04:00:19.246Z,29.50
2018-07-17T04:02:47.668Z,29.50
2018-07-17T04:05:16.033Z,29.60
2018-07-17T04:07:44.397Z,29.60
2018-07-17T04:10:12.876Z,29.50
2018-07-17T04:12:41.268Z,29.60
2018-07-17T04:15:09.738Z,29.50
2018-07-17T04:17:38.745Z,29.50
2018-07-17T04:20:07.140Z,29.50
2018-07-17T04:22:35.501Z,29.50
2018-07-17T04:25:03.884Z,29.50
2018-07-17T04:27:32.280Z,29.50
2018-07-17T04:30:00.790Z,29.50
2018-07-17T04:32:29.168Z,29.50
2018-07-17T04:34:57.665Z,29.60
2018-07-17T04:37:26.064Z,29.70
2018-07-17T04:39:54.510Z,29.80
2018-07-17T04:42:22.903Z,29.90
2018-07-17T04:44:51.277Z,30.30
2018-07-17T04:47:19.745Z,30.70
2018-07-17T04:49:48.128Z,31.00
2018-07-17T04:52:16.551Z,31.40
2018-07-17T04:54:45.083Z,31.70
2018-07-17T04:57:13.548Z,31.60
2018-07-17T04:59:41.899Z,31.40
2018-07-17T05:02:10.270Z,31.30
2018-07-17T05:04:38.734Z,31.10
2018-07-17T05:07:07.157Z,30.90
2018-07-17T05:09:35.549Z,30.80
2018-07-17T05:12:03.964Z,30.60
2018-07-17T05:14:32.388Z,30.60
2018-07-17T05:17:00.757Z,30.50
2018-07-17T05:19:29.190Z,30.40
2018-07-17T05:21:57.701Z,30.40
2018-07-17T05:24:26.181Z,30.40
2018-07-17T05:26:54.595Z,30.40
2018-07-17T05:29:22.976Z,30.30
2018-07-17T05:31:51.484Z,30.40
2018-07-17T05:34:19.913Z,30.30
2018-07-17T05:36:48.388Z,30.30
2018-07-17T05:39:17.303Z,30.30
2018-07-17T05:41:45.671Z,30.40
2018-07-17T05:44:14.136Z,30.40
2018-07-17T05:46:42.636Z,30.40
2018-07-17T05:49:11.140Z,30.40
2018-07-17T05:51:39.535Z,30.40
2018-07-17T05:54:08.212Z,30.40
2018-07-17T05:56:36.624Z,30.40
2018-07-17T05:59:05.252Z,30.40
2018-07-17T06:01:36.480Z,30.40
2018-07-17T06:04:04.982Z,30.40
2018-07-17T06:06:33.388Z,30.40
2018-07-17T06:09:01.822Z,30.40
2018-07-17T06:11:30.252Z,30.40
2018-07-17T06:13:58.687Z,30.40
2018-07-17T06:16:27.804Z,30.50
2018-07-17T06:18:56.333Z,30.50
2018-07-17T06:21:24.821Z,30.50
2018-07-17T06:23:53.221Z,30.50
2018-07-17T06:26:21.729Z,30.60
2018-07-17T06:28:50.222Z,30.70
2018-07-17T06:31:19.266Z,30.70
2018-07-17T06:33:49.014Z,30.70
2018-07-17T06:36:18.434Z,30.70
2018-07-17T06:38:46.879Z,30.70
2018-07-17T06:41:16.193Z,30.70
2018-07-17T06:43:44.700Z,30.70
2018-07-17T06:46:13.215Z,30.70
2018-07-17T06:48:41.869Z,30.70
2018-07-17T06:51:10.518Z,30.70
2018-07-17T06:53:39.701Z,30.70
2018-07-17T06:56:08.243Z,30.60
2018-07-17T06:58:36.677Z,30.60
2018-07-17T07:01:05.225Z,30.60
2018-07-17T07:03:36.635Z,30.60
2018-07-17T07:06:05.153Z,30.60
2018-07-17T07:08:33.602Z,30.60
2018-07-17T07:11:02.165Z,30.60
2018-07-17T07:13:30.593Z,30.60
2018-07-17T07:15:59.367Z,30.60
2018-07-17T07:18:28.044Z,30.60
2018-07-17T07:20:56.551Z,30.60
2018-07-17T07:23:25.269Z,30.60
2018-07-17T07:25:53.752Z,30.60
2018-07-17T07:28:22.151Z,30.60
2018-07-17T07:30:50.624Z,30.60
2018-07-17T07:33:19.135Z,30.50
2018-07-17T07:35:47.665Z,30.50
2018-07-17T07:38:16.436Z,30.40
2018-07-17T07:40:45.076Z,30.40
2018-07-17T07:43:13.497Z,30.30
2018-07-17T07:45:41.873Z,30.30
2018-07-17T07:48:10.246Z,30.30
2018-07-17T07:53:06.741Z,30.30
2018-07-17T07:55:35.255Z,30.30
2018-07-17T07:58:04.220Z,30.30
2018-07-17T08:00:32.650Z,30.30
2018-07-17T08:03:01.060Z,30.30
2018-07-17T08:05:29.788Z,30.30
2018-07-17T08:07:58.179Z,30.40
2018-07-17T08:10:26.572Z,30.30
2018-07-17T08:12:54.990Z,30.30
2018-07-17T08:15:23.488Z,30.30
2018-07-17T08:17:52.103Z,30.30
2018-07-17T08:20:21.165Z,30.30
2018-07-17T08:22:49.559Z,30.30
2018-07-17T08:25:17.944Z,30.20
2018-07-17T08:27:46.322Z,30.20
2018-07-17T08:30:14.717Z,30.20
2018-07-17T08:32:43.136Z,30.30
2018-07-17T08:35:11.523Z,30.20
2018-07-17T08:37:39.900Z,30.20
2018-07-17T08:40:08.321Z,30.20
2018-07-17T08:42:37.102Z,30.20
2018-07-17T08:45:05.567Z,30.20
2018-07-17T08:47:33.942Z,30.20
2018-07-17T08:50:02.307Z,30.20
2018-07-17T08:52:30.675Z,30.20
2018-07-17T08:54:59.060Z,30.10
2018-07-17T08:57:27.464Z,30.10
2018-07-17T08:59:55.897Z,30.10
2018-07-17T09:02:24.268Z,30.00
2018-07-17T09:04:52.753Z,30.00
2018-07-17T09:07:21.237Z,30.10
2018-07-17T09:09:50.377Z,30.10
2018-07-17T09:12:18.912Z,30.10
2018-07-17T09:14:47.322Z,30.10
2018-07-17T09:17:15.797Z,30.10
2018-07-17T09:19:44.172Z,30.00
2018-07-17T09:22:12.541Z,30.00
2018-07-17T09:24:40.896Z,30.00
2018-07-17T09:27:09.433Z,30.00
2018-07-17T09:29:37.819Z,30.00
2018-07-17T09:32:06.217Z,30.00
2018-07-17T09:34:34.642Z,30.00
2018-07-17T09:37:03.016Z,30.00
2018-07-17T09:39:31.476Z,30.00
2018-07-17T09:42:00.064Z,30.00
2018-07-17T09:44:28.535Z,30.00
2018-07-17T09:46:56.962Z,30.00
2018-07-17T09:49:25.432Z,30.00
2018-07-17T09:51:53.824Z,30.10
2018-07-17T09:54:22.296Z,30.10
2018-07-17T09:56:50.672Z,30.10
2018-07-17T09:59:19.795Z,30.10
2018-07-17T10:01:53.499Z,30.10
2018-07-17T10:04:21.907Z,30.10
2018-07-17T10:06:50.282Z,30.10
2018-07-17T10:09:18.752Z,30.10
2018-07-17T10:11:47.065Z,30.10
2018-07-17T10:14:16.112Z,30.10
2018-07-17T10:16:44.477Z,30.10
2018-07-17T10:19:12.997Z,30.10
2018-07-17T10:21:41.388Z,30.10
2018-07-17T10:24:09.749Z,30.10
2018-07-17T10:26:38.230Z,30.10
2018-07-17T10:29:06.620Z,30.10
2018-07-17T10:31:34.984Z,30.10
2018-07-17T10:34:03.365Z,30.10
2018-07-17T10:36:31.731Z,30.00
2018-07-17T10:39:00.169Z,30.10
2018-07-17T10:41:28.627Z,30.10
2018-07-17T10:43:57.036Z,30.10
2018-07-17T10:46:25.452Z,30.10
2018-07-17T10:48:53.820Z,30.20
2018-07-17T10:51:22.207Z,30.20
2018-07-17T10:53:50.581Z,30.20
2018-07-17T10:56:19.042Z,30.20
2018-07-17T10:58:47.489Z,30.20
2018-07-17T11:01:15.894Z,30.20
2018-07-17T11:03:44.320Z,30.20
2018-07-17T11:06:12.729Z,30.10
2018-07-17T11:08:41.149Z,30.10
2018-07-17T11:11:09.767Z,30.10
2018-07-17T11:13:38.192Z,30.10
2018-07-17T11:16:06.615Z,30.10
2018-07-17T11:18:35.333Z,30.20
2018-07-17T11:21:03.804Z,30.20
2018-07-17T11:23:32.217Z,30.20
2018-07-17T11:26:00.600Z,30.20
2018-07-17T11:28:29.028Z,30.20
2018-07-17T11:30:57.452Z,30.20
2018-07-17T11:33:25.907Z,30.30
2018-07-17T11:35:54.275Z,30.30
2018-07-17T11:38:22.852Z,30.30
2018-07-17T11:40:51.947Z,30.30
2018-07-17T11:43:20.338Z,30.30
2018-07-17T11:45:48.970Z,30.20
2018-07-17T11:48:17.400Z,30.20
2018-07-17T11:50:45.786Z,30.20
2018-07-17T11:53:14.253Z,30.20
2018-07-17T11:55:42.619Z,30.10
2018-07-17T11:58:11.083Z,30.10
2018-07-17T12:00:39.580Z,30.10
2018-07-17T12:03:08.088Z,30.10
2018-07-17T12:05:36.562Z,30.10
2018-07-17T12:08:05.244Z,30.10
2018-07-17T12:10:33.653Z,30.10
2018-07-17T12:13:02.163Z,30.20
2018-07-17T12:15:30.485Z,30.20
2018-07-17T12:17:58.996Z,30.20
2018-07-17T12:20:27.532Z,30.20
2018-07-17T12:22:55.830Z,30.10
2018-07-17T12:25:24.232Z,30.20
2018-07-17T12:27:52.647Z,30.20
2018-07-17T12:30:21.002Z,30.20
2018-07-17T12:32:49.405Z,30.20
2018-07-17T12:35:17.758Z,30.20
2018-07-17T12:37:46.228Z,30.20
2018-07-17T12:40:14.617Z,30.20
2018-07-17T12:42:43.007Z,30.10
2018-07-17T12:45:11.407Z,30.10
2018-07-17T12:47:39.918Z,30.10
2018-07-17T12:50:08.328Z,30.10
2018-07-17T12:52:36.695Z,30.00
2018-07-17T12:55:05.274Z,30.00
2018-07-17T12:57:33.647Z,30.00
2018-07-17T13:00:02.136Z,30.00
2018-07-17T13:02:30.524Z,30.00
2018-07-17T13:04:58.939Z,30.00
2018-07-17T13:07:27.464Z,30.00
2018-07-17T13:09:55.952Z,30.00
2018-07-17T13:12:24.500Z,30.00
2018-07-17T13:14:52.936Z,30.00
2018-07-17T13:17:21.439Z,30.00
2018-07-17T13:19:49.821Z,30.00
2018-07-17T13:22:18.351Z,30.10
2018-07-17T13:24:47.520Z,30.10
2018-07-17T13:27:16.013Z,30.10
2018-07-17T13:29:44.420Z,30.20
2018-07-17T13:32:12.800Z,30.20
2018-07-17T13:34:41.184Z,30.20
2018-07-17T13:37:09.591Z,30.20
2018-07-17T13:39:37.968Z,30.20
2018-07-17T13:42:06.852Z,30.20
2018-07-17T13:44:35.244Z,30.20
2018-07-17T13:47:03.837Z,30.20
2018-07-17T13:49:32.207Z,30.20
2018-07-17T13:52:00.552Z,30.20
2018-07-17T13:54:28.954Z,30.20
2018-07-17T13:56:57.531Z,30.20
2018-07-17T13:59:26.105Z,30.20
2018-07-17T14:01:54.514Z,30.20
2018-07-17T14:06:51.069Z,30.20
2018-07-17T14:09:20.611Z,30.20
2018-07-17T14:11:49.044Z,30.30
2018-07-17T14:14:17.949Z,30.20
2018-07-17T14:16:46.313Z,30.30
2018-07-17T14:19:14.691Z,30.20
2018-07-17T14:21:43.089Z,30.20
2018-07-17T14:24:11.972Z,30.20
2018-07-17T14:26:40.363Z,30.20
2018-07-17T14:29:08.884Z,30.30
2018-07-17T14:31:37.244Z,30.30
2018-07-17T14:34:05.668Z,30.30
2018-07-17T14:36:34.196Z,30.30
2018-07-17T14:39:02.801Z,30.30
2018-07-17T14:41:31.264Z,30.30
2018-07-17T14:43:59.924Z,30.30
2018-07-17T14:46:28.450Z,30.30
2018-07-17T14:48:56.833Z,30.30
2018-07-17T14:51:25.472Z,30.30
2018-07-17T14:53:53.960Z,30.40
2018-07-17T14:56:22.332Z,30.40
2018-07-17T14:58:50.687Z,30.40
2018-07-17T15:01:19.040Z,30.40
2018-07-17T15:03:47.472Z,30.40
2018-07-17T15:06:15.844Z,30.40
2018-07-17T15:08:44.317Z,30.40
2018-07-17T15:11:12.868Z,30.40
2018-07-17T15:13:41.884Z,30.30
2018-07-17T15:16:10.283Z,30.30
2018-07-17T15:18:38.669Z,30.30
2018-07-17T15:21:07.103Z,30.20
2018-07-17T15:23:35.532Z,30.20
2018-07-17T15:26:03.906Z,30.20
2018-07-17T15:28:32.547Z,30.20
2018-07-17T15:31:01.015Z,30.20
2018-07-17T15:33:29.473Z,30.20
2018-07-17T15:35:57.877Z,30.20
2018-07-17T15:38:26.278Z,30.20
2018-07-17T15:40:54.812Z,30.20
2018-07-17T15:43:23.852Z,30.20
2018-07-17T15:45:52.333Z,30.20
2018-07-17T15:48:20.700Z,30.10
2018-07-17T15:50:49.213Z,30.20
2018-07-17T15:53:17.622Z,30.10
2018-07-17T15:55:45.989Z,30.10
2018-07-17T15:58:14.424Z,30.10
2018-07-17T16:00:42.788Z,30.10
2018-07-17T16:03:11.522Z,30.10
2018-07-17T16:05:39.969Z,30.00
2018-07-17T16:08:10.034Z,30.10
2018-07-17T16:10:38.406Z,30.10
2018-07-17T16:13:06.853Z,30.10
2018-07-17T16:15:35.669Z,30.10
2018-07-17T16:18:04.253Z,30.10
2018-07-17T16:20:32.633Z,30.10
2018-07-17T16:23:01.008Z,30.10
2018-07-17T16:25:29.452Z,30.00
2018-07-17T16:27:57.940Z,30.00
2018-07-17T16:30:26.948Z,30.10
2018-07-17T16:32:55.924Z,30.10
2018-07-17T16:35:24.352Z,30.10
2018-07-17T16:37:52.796Z,30.00
2018-07-17T16:40:21.623Z,30.10
2018-07-17T16:42:50.024Z,30.10
2018-07-17T16:45:19.179Z,30.00
2018-07-17T16:47:47.621Z,30.00
2018-07-17T16:50:16.045Z,30.00
2018-07-17T16:52:44.416Z,30.00
2018-07-17T16:55:12.933Z,29.90
2018-07-17T16:57:41.487Z,29.90
2018-07-17T17:00:10.556Z,29.90
2018-07-17T17:02:38.995Z,30.00
2018-07-17T17:07:35.855Z,29.90
2018-07-17T17:10:04.399Z,29.90
2018-07-17T17:12:34.037Z,29.90
2018-07-17T17:15:02.457Z,29.90
2018-07-17T17:17:30.825Z,29.90
2018-07-17T17:19:59.259Z,29.90
2018-07-17T17:22:27.997Z,29.90
2018-07-17T17:24:56.360Z,29.90
2018-07-17T17:27:24.751Z,30.00
2018-07-17T17:29:53.126Z,30.00
2018-07-17T17:32:21.556Z,30.00
2018-07-17T17:34:50.012Z,30.00
2018-07-17T17:37:18.396Z,30.00
2018-07-17T17:39:46.874Z,30.00
2018-07-17T17:42:15.989Z,30.00
2018-07-17T17:44:44.928Z,30.00
2018-07-17T17:47:13.301Z,30.00
2018-07-17T17:49:42.170Z,30.00
2018-07-17T17:52:11.213Z,30.00
2018-07-17T17:54:39.611Z,30.00
2018-07-17T17:57:09.295Z,30.00
2018-07-17T17:59:38.312Z,30.00
2018-07-17T18:02:06.944Z,30.00
2018-07-17T18:04:35.927Z,30.00
2018-07-17T18:07:04.501Z,30.00
2018-07-17T18:09:32.967Z,30.00
2018-07-17T18:12:01.600Z,29.90
2018-07-17T18:14:31.020Z,30.00
2018-07-17T18:16:59.791Z,29.90
2018-07-17T18:19:28.497Z,29.90
2018-07-17T18:21:57.375Z,29.90
2018-07-17T18:24:25.956Z,29.90
2018-07-17T18:26:55.100Z,29.90
2018-07-17T18:29:23.589Z,29.90
2018-07-17T18:31:52.069Z,29.90
2018-07-17T18:34:20.943Z,29.90
2018-07-17T18:36:49.502Z,29.90
2018-07-17T18:39:18.214Z,29.90
2018-07-17T18:41:46.709Z,29.90
2018-07-17T18:44:15.105Z,29.90
2018-07-17T18:46:43.955Z,29.90
2018-07-17T18:49:12.709Z,29.80
2018-07-17T18:51:41.253Z,29.80
2018-07-17T18:54:09.714Z,29.70
2018-07-17T18:56:38.274Z,29.70
2018-07-17T18:59:07.464Z,29.60
2018-07-17T19:01:36.425Z,29.60
2018-07-17T19:04:05.118Z,29.60
2018-07-17T19:06:33.958Z,29.60
2018-07-17T19:09:04.217Z,29.60
2018-07-17T19:14:03.137Z,29.60
2018-07-17T19:16:32.307Z,29.70
2018-07-17T19:19:01.698Z,29.80
2018-07-17T19:21:30.374Z,29.90
2018-07-17T19:23:59.971Z,29.90
2018-07-17T19:26:28.652Z,30.00
2018-07-17T19:28:57.676Z,30.00
2018-07-17T19:31:28.352Z,30.10
2018-07-17T19:33:56.832Z,30.20
2018-07-17T19:36:25.324Z,30.30
2018-07-17T19:38:53.716Z,30.30
2018-07-17T19:41:22.285Z,30.40
2018-07-17T19:43:51.277Z,30.60
2018-07-17T19:46:20.063Z,30.50
2018-07-17T19:48:48.683Z,30.50
2018-07-17T19:51:17.711Z,30.40
2018-07-17T19:53:46.376Z,30.40
2018-07-17T19:56:15.013Z,30.40
2018-07-17T19:58:43.451Z,30.30
2018-07-17T20:01:12.200Z,30.30
2018-07-17T20:03:41.380Z,30.20
2018-07-17T20:06:17.512Z,30.20
2018-07-17T20:08:46.753Z,30.10
2018-07-17T20:11:15.224Z,30.10
2018-07-17T20:13:43.712Z,30.00
2018-07-17T20:16:12.339Z,30.00
2018-07-17T20:18:40.885Z,30.00
2018-07-17T20:21:09.383Z,30.00
2018-07-17T20:23:37.762Z,29.90
2018-07-17T20:26:06.215Z,29.90
2018-07-17T20:28:34.872Z,29.80
2018-07-17T20:31:03.292Z,29.70
2018-07-17T20:33:31.712Z,29.70
2018-07-17T20:36:00.592Z,29.70
2018-07-17T20:38:28.988Z,29.70
2018-07-17T20:40:57.517Z,29.80
2018-07-17T20:45:53.890Z,29.80
2018-07-17T20:48:22.974Z,29.80
2018-07-17T20:50:51.429Z,29.80
2018-07-17T20:53:19.868Z,29.70
2018-07-17T20:55:48.360Z,29.60
2018-07-17T20:58:16.769Z,29.50
2018-07-17T21:00:45.251Z,29.50
2018-07-17T21:03:13.874Z,29.50
2018-07-17T21:05:42.500Z,29.50
2018-07-17T21:08:12.880Z,29.50
2018-07-17T21:10:41.295Z,29.40
2018-07-17T21:13:09.765Z,29.40
2018-07-17T21:18:07.251Z,29.30
2018-07-17T21:20:35.724Z,29.40
2018-07-17T21:23:05.317Z,29.40
2018-07-17T21:25:35.169Z,29.40
2018-07-17T21:28:03.799Z,29.40
2018-07-17T21:30:32.316Z,29.40
2018-07-17T21:33:00.991Z,29.50
2018-07-17T21:35:29.507Z,29.40
2018-07-17T21:37:58.610Z,29.40
2018-07-17T21:40:27.054Z,29.50
2018-07-17T21:42:55.685Z,29.40
2018-07-17T21:47:52.421Z,29.30
2018-07-17T21:50:21.555Z,29.30
2018-07-17T21:52:50.023Z,29.40
2018-07-17T21:55:18.449Z,29.40
2018-07-17T21:57:46.932Z,29.50
2018-07-17T22:00:15.378Z,29.50
2018-07-17T22:02:43.852Z,29.50
2018-07-17T22:07:40.423Z,29.50
2018-07-17T22:10:09.732Z,29.50
2018-07-17T22:12:38.275Z,29.50
2018-07-17T22:15:06.825Z,29.50
2018-07-17T22:17:42.570Z,29.60
2018-07-17T22:20:17.489Z,29.60
2018-07-17T22:22:46.373Z,29.60
2018-07-17T22:25:15.442Z,29.60
2018-07-17T22:30:12.754Z,29.50
2018-07-17T22:32:41.214Z,29.50
2018-07-17T22:35:09.724Z,29.50
2018-07-17T22:37:38.199Z,29.60
2018-07-17T22:40:06.634Z,29.60
2018-07-17T22:42:35.161Z,29.60
2018-07-17T22:45:03.646Z,29.60
2018-07-17T22:47:32.249Z,29.60
2018-07-17T22:50:00.689Z,29.60
2018-07-17T22:52:29.148Z,29.60
2018-07-17T22:54:57.608Z,29.60
2018-07-17T22:57:26.199Z,29.60
2018-07-17T22:59:54.668Z,29.60
2018-07-17T23:02:23.144Z,29.50
2018-07-17T23:04:51.595Z,29.50
2018-07-17T23:07:20.066Z,29.50
2018-07-17T23:09:48.549Z,29.50
2018-07-17T23:12:17.038Z,29.50
2018-07-17T23:14:45.553Z,29.50
2018-07-17T23:17:14.199Z,29.50
2018-07-17T23:19:42.589Z,29.50
2018-07-17T23:22:11.123Z,29.50
2018-07-17T23:24:39.611Z,29.50
2018-07-17T23:27:08.057Z,29.50
2018-07-17T23:29:36.607Z,29.50
2018-07-17T23:32:05.107Z,29.40
2018-07-17T23:34:33.749Z,29.50
2018-07-17T23:37:02.314Z,29.50
2018-07-17T23:39:31.110Z,29.50
2018-07-17T23:41:59.613Z,29.50
2018-07-17T23:44:28.055Z,29.50
2018-07-17T23:46:56.505Z,29.40
2018-07-17T23:49:43.366Z,29.40
2018-07-17T23:52:11.814Z,29.40
2018-07-17T23:54:40.267Z,29.40
2018-07-17T23:57:09.050Z,29.40
2018-07-17T23:59:37.544Z,29.40
